Princeton, Texas
Current Conditions -  °F | °C
As of 5:31 AM on Saturday 20 Dec 2014 (Local Time) from KTKI Reporting Station
Haze Haze  
Wind Chill: 40°   Ceiling: 400
Heat Index: 44°   Visibility: 4mi
Dew Point: 43°   Wind: 7mph
Humidity: 96%   Direction: 10°N
Pressure: 30.22"   Gusts: NA
Location:  33.18°N, 96.5°W
Report Text: KTKI 201131Z AUTO 01006KT 4SM BR OVC004 07/06 A3022 RMK AO2 T00670061
Loading
Personal Weather Stations






























Interactive Weather Map New forecast layout! Learn more

10-Day Weather Forecast

Advertisements
Track Severe Weather on mobile